KCXO/CXO METAR and TAF weather

Enter ICAO airport designator
Station Type Date Time Source
KCXO METAR 2018/10/21 03:53 UTC NOAA

KCXO 210353Z AUTO 01006KT 10SM BKN060 17/17 A3023 RMK AO2 SLP234 T01670167


Station Type Date Time Source
KCXO Decoded METAR 2018/10/21 03:53 UTC NOAA

LONE STAR EXECUTIVE AIRPORT, TX, United States (KCXO) 30-21N 95-25W 75M
Oct 20, 2018 - 11:53 PM EDT / 2018.10.21 0353 UTC
Wind: from the N (010 degrees) at 7 MPH (6 KT):0
Visibility: 10 mile(s):0
Sky conditions: mostly cloudy
Temperature: 62.1 F (16.7 C)
Dew Point: 62.1 F (16.7 C)
Relative Humidity: 100%
Pressure (altimeter): 30.23 in. Hg (1023 hPa)
ob: KCXO 210353Z AUTO 01006KT 10SM BKN060 17/17 A3023 RMK AO2 SLP234 T01670167
cycle: 4

Station Type Date Time Source
KCXO TAF 2018/10/21 02:42 UTC NOAA

TAF
AMD KCXO 210139Z 2102/2124 01009KT P6SM FEW007 SCT015 OVC045
FM210300 36006KT P6SM SCT025 BKN050
FM210500 01006KT P6SM SCT150 BKN250
FM211500 03009KT P6SM SCT250


Example: see airport list